sensor_id;sensor_type;location;lat;lon;timestamp;pressure;altitude;pressure_sealevel;temperature;humidity
74125;BME280;62475;52.192;5.396;2023-03-16T00:00:45;101727.84;;;5.28;100.00
74125;BME280;62475;52.192;5.396;2023-03-16T00:03:12;101730.81;;;5.26;100.00
74125;BME280;62475;52.192;5.396;2023-03-16T00:05:50;101727.00;;;5.27;100.00
74125;BME280;62475;52.192;5.396;2023-03-16T00:08:17;101728.09;;;5.26;100.00
74125;BME280;62475;52.192;5.396;2023-03-16T00:10:44;101726.41;;;5.25;100.00
74125;BME280;62475;52.192;5.396;2023-03-16T00:13:16;101720.72;;;5.27;100.00
74125;BME280;62475;52.192;5.396;2023-03-16T00:15:53;101706.06;;;5.28;100.00
74125;BME280;62475;52.192;5.396;2023-03-16T00:18:22;101707.22;;;5.32;100.00
74125;BME280;62475;52.192;5.396;2023-03-16T00:20:52;101707.47;;;5.30;100.00
74125;BME280;62475;52.192;5.396;2023-03-16T00:23:19;101711.88;;;5.31;100.00
74125;BME280;62475;52.192;5.396;2023-03-16T00:25:51;101705.34;;;5.32;100.00
74125;BME280;62475;52.192;5.396;2023-03-16T00:28:18;101697.16;;;5.32;100.00
74125;BME280;62475;52.192;5.396;2023-03-16T00:30:43;101695.53;;;5.31;100.00
74125;BME280;62475;52.192;5.396;2023-03-16T00:33:12;101676.00;;;5.23;100.00
74125;BME280;62475;52.192;5.396;2023-03-16T00:35:37;101673.97;;;5.30;100.00
74125;BME280;62475;52.192;5.396;2023-03-16T00:38:13;101682.72;;;5.32;100.00
74125;BME280;62475;52.192;5.396;2023-03-16T00:40:38;101675.38;;;5.32;100.00
74125;BME280;62475;52.192;5.396;2023-03-16T00:43:04;101670.41;;;5.29;100.00
74125;BME280;62475;52.192;5.396;2023-03-16T00:45:29;101663.28;;;5.28;100.00
74125;BME280;62475;52.192;5.396;2023-03-16T00:47:56;101676.00;;;5.23;100.00
74125;BME280;62475;52.192;5.396;2023-03-16T00:50:21;101678.47;;;5.24;100.00
74125;BME280;62475;52.192;5.396;2023-03-16T00:52:47;101677.63;;;5.24;100.00
74125;BME280;62475;52.192;5.396;2023-03-16T00:55:13;101670.31;;;5.24;100.00
74125;BME280;62475;52.192;5.396;2023-03-16T00:57:38;101671.34;;;5.23;100.00
74125;BME280;62475;52.192;5.396;2023-03-16T01:00:04;101657.13;;;5.21;100.00
74125;BME280;62475;52.192;5.396;2023-03-16T01:02:42;101654.56;;;5.26;100.00
74125;BME280;62475;52.192;5.396;2023-03-16T01:05:10;101652.28;;;5.23;100.00
74125;BME280;62475;52.192;5.396;2023-03-16T01:07:38;101648.97;;;5.21;100.00
74125;BME280;62475;52.192;5.396;2023-03-16T01:10:04;101646.13;;;5.16;100.00
74125;BME280;62475;52.192;5.396;2023-03-16T01:12:29;101639.16;;;5.20;100.00
74125;BME280;62475;52.192;5.396;2023-03-16T01:14:55;101634.44;;;5.16;100.00
74125;BME280;62475;52.192;5.396;2023-03-16T01:17:20;101626.28;;;5.16;100.00
74125;BME280;62475;52.192;5.396;2023-03-16T01:19:47;101638.81;;;5.17;100.00
74125;BME280;62475;52.192;5.396;2023-03-16T01:22:13;101630.16;;;5.20;100.00
74125;BME280;62475;52.192;5.396;2023-03-16T01:24:41;101621.16;;;5.19;100.00
74125;BME280;62475;52.192;5.396;2023-03-16T01:27:07;101629.44;;;5.24;100.00
74125;BME280;62475;52.192;5.396;2023-03-16T01:29:33;101622.31;;;5.23;100.00
74125;BME280;62475;52.192;5.396;2023-03-16T01:32:00;101616.53;;;5.20;100.00
74125;BME280;62475;52.192;5.396;2023-03-16T01:34:25;101617.63;;;5.19;100.00
74125;BME280;62475;52.192;5.396;2023-03-16T01:36:51;101613.56;;;5.21;100.00
74125;BME280;62475;52.192;5.396;2023-03-16T01:39:16;101606.13;;;5.17;100.00
74125;BME280;62475;52.192;5.396;2023-03-16T01:41:43;101606.97;;;5.17;100.00
74125;BME280;62475;52.192;5.396;2023-03-16T01:44:16;101605.53;;;5.15;100.00
74125;BME280;62475;52.192;5.396;2023-03-16T01:46:42;101606.38;;;5.15;100.00
74125;BME280;62475;52.192;5.396;2023-03-16T01:52:09;101593.34;;;5.17;100.00
74125;BME280;62475;52.192;5.396;2023-03-16T01:54:43;101601.16;;;5.14;100.00
74125;BME280;62475;52.192;5.396;2023-03-16T01:59:43;101575.22;;;5.11;100.00
74125;BME280;62475;52.192;5.396;2023-03-16T02:02:12;101571.91;;;5.09;100.00
74125;BME280;62475;52.192;5.396;2023-03-16T02:04:49;101577.59;;;5.08;100.00
74125;BME280;62475;52.192;5.396;2023-03-16T02:07:21;101572.88;;;5.03;100.00
74125;BME280;62475;52.192;5.396;2023-03-16T02:09:50;101574.06;;;5.07;100.00
74125;BME280;62475;52.192;5.396;2023-03-16T02:12:19;101577.59;;;5.08;100.00
74125;BME280;62475;52.192;5.396;2023-03-16T02:14:46;101574.06;;;5.07;100.00
74125;BME280;62475;52.192;5.396;2023-03-16T02:17:17;101565.06;;;5.07;100.00
74125;BME280;62475;52.192;5.396;2023-03-16T02:22:28;101566.00;;;5.12;100.00
74125;BME280;62475;52.192;5.396;2023-03-16T02:24:54;101559.03;;;5.05;100.00
74125;BME280;62475;52.192;5.396;2023-03-16T02:27:40;101554.63;;;5.15;100.00
74125;BME280;62475;52.192;5.396;2023-03-16T02:30:13;101562.69;;;5.10;100.00
74125;BME280;62475;52.192;5.396;2023-03-16T02:32:39;101549.91;;;5.11;100.00
74125;BME280;62475;52.192;5.396;2023-03-16T02:35:06;101544.69;;;5.09;100.00
74125;BME280;62475;52.192;5.396;2023-03-16T02:37:32;101559.47;;;5.13;100.00
74125;BME280;62475;52.192;5.396;2023-03-16T02:39:58;101562.69;;;5.10;100.00
74125;BME280;62475;52.192;5.396;2023-03-16T02:42:25;101550.63;;;5.06;100.00
74125;BME280;62475;52.192;5.396;2023-03-16T02:44:55;101554.28;;;5.12;100.00
74125;BME280;62475;52.192;5.396;2023-03-16T02:47:33;101558.09;;;5.11;100.00
74125;BME280;62475;52.192;5.396;2023-03-16T02:49:59;101550.03;;;5.04;100.00
74125;BME280;62475;52.192;5.396;2023-03-16T02:52:28;101556.56;;;5.03;100.00
74125;BME280;62475;52.192;5.396;2023-03-16T02:54:54;101554.88;;;5.02;100.00
74125;BME280;62475;52.192;5.396;2023-03-16T02:57:20;101560.31;;;5.02;100.00
74125;BME280;62475;52.192;5.396;2023-03-16T02:59:46;101561.75;;;5.05;100.00
74125;BME280;62475;52.192;5.396;2023-03-16T03:02:11;101568.28;;;5.04;100.00
74125;BME280;62475;52.192;5.396;2023-03-16T03:04:36;101547.19;;;4.99;100.00
74125;BME280;62475;52.192;5.396;2023-03-16T03:07:02;101558.09;;;4.99;100.00
74125;BME280;62475;52.192;5.396;2023-03-16T03:09:30;101550.28;;;5.03;100.00
74125;BME280;62475;52.192;5.396;2023-03-16T03:11:57;101548.03;;;5.00;100.00
74125;BME280;62475;52.192;5.396;2023-03-16T03:14:22;101552.41;;;5.01;100.00
74125;BME280;62475;52.192;5.396;2023-03-16T03:16:49;101548.38;;;5.03;100.00
74125;BME280;62475;52.192;5.396;2023-03-16T03:19:16;101528.28;;;4.93;100.00
74125;BME280;62475;52.192;5.396;2023-03-16T03:21:41;101543.66;;;4.99;100.00
74125;BME280;62475;52.192;5.396;2023-03-16T03:24:07;101541.75;;;4.99;100.00
74125;BME280;62475;52.192;5.396;2023-03-16T03:26:33;101542.34;;;5.01;100.00
74125;BME280;62475;52.192;5.396;2023-03-16T03:28:58;101535.38;;;4.94;100.00
74125;BME280;62475;52.192;5.396;2023-03-16T03:31:24;101538.09;;;4.94;100.00
74125;BME280;62475;52.192;5.396;2023-03-16T03:33:49;101535.97;;;4.96;100.00
74125;BME280;62475;52.192;5.396;2023-03-16T03:36:14;101535.03;;;4.90;100.00
74125;BME280;62475;52.192;5.396;2023-03-16T03:38:40;101522.00;;;4.92;100.00
74125;BME280;62475;52.192;5.396;2023-03-16T03:41:06;101523.22;;;4.85;100.00
74125;BME280;62475;52.192;5.396;2023-03-16T03:43:34;101513.38;;;4.84;100.00
74125;BME280;62475;52.192;5.396;2023-03-16T03:46:01;101512.00;;;4.81;100.00
74125;BME280;62475;52.192;5.396;2023-03-16T03:48:28;101509.84;;;4.83;100.00
74125;BME280;62475;52.192;5.396;2023-03-16T03:50:53;101510.06;;;4.82;100.00
74125;BME280;62475;52.192;5.396;2023-03-16T03:53:19;101504.63;;;4.82;100.00
74125;BME280;62475;52.192;5.396;2023-03-16T03:55:45;101497.31;;;4.82;100.00
74125;BME280;62475;52.192;5.396;2023-03-16T03:58:11;101498.13;;;4.83;100.00
74125;BME280;62475;52.192;5.396;2023-03-16T04:00:37;101491.88;;;4.82;100.00
74125;BME280;62475;52.192;5.396;2023-03-16T04:03:03;101501.09;;;4.81;100.00
74125;BME280;62475;52.192;5.396;2023-03-16T04:05:29;101501.66;;;4.83;100.00
74125;BME280;62475;52.192;5.396;2023-03-16T04:07:55;101491.63;;;4.84;100.00
74125;BME280;62475;52.192;5.396;2023-03-16T04:10:26;101492.22;;;4.86;100.00
74125;BME280;62475;52.192;5.396;2023-03-16T04:12:52;101485.22;;;4.78;100.00
74125;BME280;62475;52.192;5.396;2023-03-16T04:15:18;101486.66;;;4.81;100.00
74125;BME280;62475;52.192;5.396;2023-03-16T04:17:44;101484.19;;;4.79;100.00
74125;BME280;62475;52.192;5.396;2023-03-16T04:20:10;101490.22;;;4.81;100.00
74125;BME280;62475;52.192;5.396;2023-03-16T04:22:40;101485.22;;;4.78;100.00
74125;BME280;62475;52.192;5.396;2023-03-16T04:25:07;101475.44;;;4.77;100.00
74125;BME280;62475;52.192;5.396;2023-03-16T04:27:33;101478.63;;;4.74;100.00
74125;BME280;62475;52.192;5.396;2023-03-16T04:30:06;101480.88;;;4.77;100.00
74125;BME280;62475;52.192;5.396;2023-03-16T04:32:32;101489.03;;;4.77;100.00
74125;BME280;62475;52.192;5.396;2023-03-16T04:34:58;101471.63;;;4.78;100.00
74125;BME280;62475;52.192;5.396;2023-03-16T04:37:23;101477.06;;;4.78;100.00
74125;BME280;62475;52.192;5.396;2023-03-16T04:39:48;101479.19;;;4.76;100.00
74125;BME280;62475;52.192;5.396;2023-03-16T04:42:14;101485.97;;;4.74;100.00
74125;BME280;62475;52.192;5.396;2023-03-16T04:44:39;101481.91;;;4.76;100.00
74125;BME280;62475;52.192;5.396;2023-03-16T04:47:09;101475.09;;;4.74;100.00
74125;BME280;62475;52.192;5.396;2023-03-16T04:49:35;101477.56;;;4.75;100.00
74125;BME280;62475;52.192;5.396;2023-03-16T04:52:01;101471.03;;;4.76;100.00
74125;BME280;62475;52.192;5.396;2023-03-16T04:54:27;101476.13;;;4.73;100.00
74125;BME280;62475;52.192;5.396;2023-03-16T04:56:52;101472.94;;;4.76;100.00
74125;BME280;62475;52.192;5.396;2023-03-16T04:59:20;101479.00;;;4.78;100.00
74125;BME280;62475;52.192;5.396;2023-03-16T05:01:45;101473.31;;;4.79;100.00
74125;BME280;62475;52.192;5.396;2023-03-16T05:04:13;101473.31;;;4.79;100.00
74125;BME280;62475;52.192;5.396;2023-03-16T05:06:38;101475.19;;;4.79;100.00
74125;BME280;62475;52.192;5.396;2023-03-16T05:09:03;101476.47;;;4.76;100.00
74125;BME280;62475;52.192;5.396;2023-03-16T05:11:32;101482.50;;;4.78;100.00
74125;BME280;62475;52.192;5.396;2023-03-16T05:13:57;101473.75;;;4.76;100.00
74125;BME280;62475;52.192;5.396;2023-03-16T05:16:23;101465.94;;;4.80;100.00
74125;BME280;62475;52.192;5.396;2023-03-16T05:18:48;101471.38;;;4.80;100.00
74125;BME280;62475;52.192;5.396;2023-03-16T05:21:13;101469.50;;;4.80;100.00
74125;BME280;62475;52.192;5.396;2023-03-16T05:23:39;101461.09;;;4.82;100.00
74125;BME280;62475;52.192;5.396;2023-03-16T05:26:04;101462.50;;;4.84;100.00
74125;BME280;62475;52.192;5.396;2023-03-16T05:28:30;101460.28;;;4.81;100.00
74125;BME280;62475;52.192;5.396;2023-03-16T05:30:56;101457.06;;;4.84;100.00
74125;BME280;62475;52.192;5.396;2023-03-16T05:33:21;101457.56;;;4.81;100.00
74125;BME280;62475;52.192;5.396;2023-03-16T05:35:47;101456.47;;;4.82;100.00
74125;BME280;62475;52.192;5.396;2023-03-16T05:38:12;101456.81;;;4.86;100.00
74125;BME280;62475;52.192;5.396;2023-03-16T05:40:37;101454.69;;;4.88;100.00
74125;BME280;62475;52.192;5.396;2023-03-16T05:43:03;101456.59;;;4.87;100.00
74125;BME280;62475;52.192;5.396;2023-03-16T05:45:28;101456.59;;;4.87;100.00
74125;BME280;62475;52.192;5.396;2023-03-16T05:47:54;101460.03;;;4.83;100.00
74125;BME280;62475;52.192;5.396;2023-03-16T05:50:19;101451.03;;;4.82;100.00
74125;BME280;62475;52.192;5.396;2023-03-16T05:52:45;101445.84;;;4.81;100.00
74125;BME280;62475;52.192;5.396;2023-03-16T05:55:12;101443.13;;;4.81;100.00
74125;BME280;62475;52.192;5.396;2023-03-16T05:57:38;101444.50;;;4.83;100.00
74125;BME280;62475;52.192;5.396;2023-03-16T06:00:06;101431.88;;;4.77;100.00
74125;BME280;62475;52.192;5.396;2023-03-16T06:02:42;101435.66;;;4.76;100.00
74125;BME280;62475;52.192;5.396;2023-03-16T06:05:08;101429.41;;;4.76;100.00
74125;BME280;62475;52.192;5.396;2023-03-16T06:07:35;101424.78;;;4.76;100.00
74125;BME280;62475;52.192;5.396;2023-03-16T06:10:00;101433.06;;;4.81;100.00
74125;BME280;62475;52.192;5.396;2023-03-16T06:12:26;101436.94;;;4.85;100.00
74125;BME280;62475;52.192;5.396;2023-03-16T06:14:52;101445.94;;;4.86;100.00
74125;BME280;62475;52.192;5.396;2023-03-16T06:17:17;101438.84;;;4.85;100.00
74125;BME280;62475;52.192;5.396;2023-03-16T06:19:44;101438.13;;;4.89;100.00
74125;BME280;62475;52.192;5.396;2023-03-16T06:22:09;101428.31;;;4.88;100.00
74125;BME280;62475;52.192;5.396;2023-03-16T06:24:35;101426.25;;;4.95;100.00
74125;BME280;62475;52.192;5.396;2023-03-16T06:27:00;101414.22;;;4.91;100.00
74125;BME280;62475;52.192;5.396;2023-03-16T06:29:26;101421.38;;;4.97;100.00
74125;BME280;62475;52.192;5.396;2023-03-16T06:31:51;101420.81;;;4.95;100.00
74125;BME280;62475;52.192;5.396;2023-03-16T06:34:18;101421.97;;;4.99;100.00
74125;BME280;62475;52.192;5.396;2023-03-16T06:36:43;101428.25;;;5.00;100.00
74125;BME280;62475;52.192;5.396;2023-03-16T06:39:09;101420.94;;;5.00;100.00
74125;BME280;62475;52.192;5.396;2023-03-16T06:41:34;101424.00;;;5.04;100.00
74125;BME280;62475;52.192;5.396;2023-03-16T06:44:00;101408.94;;;5.01;100.00
74125;BME280;62475;52.192;5.396;2023-03-16T06:46:26;101414.97;;;5.03;100.00
74125;BME280;62475;52.192;5.396;2023-03-16T06:48:52;101410.13;;;5.05;100.00
74125;BME280;62475;52.192;5.396;2023-03-16T06:51:18;101403.00;;;5.04;100.00
74125;BME280;62475;52.192;5.396;2023-03-16T06:53:43;101412.59;;;5.07;100.00
74125;BME280;62475;52.192;5.396;2023-03-16T06:56:09;101383.78;;;4.94;100.00
74125;BME280;62475;52.192;5.396;2023-03-16T06:58:35;101406.41;;;5.11;100.00
74125;BME280;62475;52.192;5.396;2023-03-16T07:01:02;101408.19;;;5.17;100.00
74125;BME280;62475;52.192;5.396;2023-03-16T07:03:28;101404.13;;;5.20;100.00
74125;BME280;62475;52.192;5.396;2023-03-16T07:05:53;101392.75;;;5.23;100.00
74125;BME280;62475;52.192;5.396;2023-03-16T07:08:19;101396.25;;;5.35;100.00
74125;BME280;62475;52.192;5.396;2023-03-16T07:10:45;101398.47;;;5.38;100.00
74125;BME280;62475;52.192;5.396;2023-03-16T07:13:10;101398.53;;;5.43;100.00
74125;BME280;62475;52.192;5.396;2023-03-16T07:15:35;101393.09;;;5.43;100.00
74125;BME280;62475;52.192;5.396;2023-03-16T07:18:01;101390.78;;;5.51;100.00
74125;BME280;62475;52.192;5.396;2023-03-16T07:20:27;101392.94;;;5.49;100.00
74125;BME280;62475;52.192;5.396;2023-03-16T07:22:55;101397.25;;;5.45;100.00
74125;BME280;62475;52.192;5.396;2023-03-16T07:25:20;101393.94;;;5.43;100.00
74125;BME280;62475;52.192;5.396;2023-03-16T07:27:46;101401.34;;;5.48;100.00
74125;BME280;62475;52.192;5.396;2023-03-16T07:30:12;101396.75;;;5.48;100.00
74125;BME280;62475;52.192;5.396;2023-03-16T07:32:39;101395.66;;;5.49;100.00
74125;BME280;62475;52.192;5.396;2023-03-16T07:35:06;101384.41;;;5.46;100.00
74125;BME280;62475;52.192;5.396;2023-03-16T07:37:31;101392.34;;;5.47;100.00
74125;BME280;62475;52.192;5.396;2023-03-16T07:39:58;101393.19;;;5.48;100.00
74125;BME280;62475;52.192;5.396;2023-03-16T07:42:23;101392.94;;;5.49;100.00
74125;BME280;62475;52.192;5.396;2023-03-16T07:44:48;101387.22;;;5.51;100.00
74125;BME280;62475;52.192;5.396;2023-03-16T07:47:16;101397.31;;;5.50;100.00
74125;BME280;62475;52.192;5.396;2023-03-16T07:49:41;101396.75;;;5.48;100.00
74125;BME280;62475;52.192;5.396;2023-03-16T07:52:07;101386.34;;;5.45;100.00
74125;BME280;62475;52.192;5.396;2023-03-16T07:54:32;101385.75;;;5.43;100.00
74125;BME280;62475;52.192;5.396;2023-03-16T07:56:57;101396.06;;;5.41;100.00
74125;BME280;62475;52.192;5.396;2023-03-16T07:59:23;101391.59;;;5.35;100.00
74125;BME280;62475;52.192;5.396;2023-03-16T08:01:48;101398.72;;;5.36;100.00
74125;BME280;62475;52.192;5.396;2023-03-16T08:04:13;101414.56;;;5.39;100.00
74125;BME280;62475;52.192;5.396;2023-03-16T08:06:39;101397.38;;;5.39;100.00
74125;BME280;62475;52.192;5.396;2023-03-16T08:09:04;101391.78;;;5.45;100.00
74125;BME280;62475;52.192;5.396;2023-03-16T08:11:30;101395.06;;;5.47;100.00
74125;BME280;62475;52.192;5.396;2023-03-16T08:13:55;101392.47;;;5.52;100.00
74125;BME280;62475;52.192;5.396;2023-03-16T08:16:25;101381.97;;;5.61;100.00
74125;BME280;62475;52.192;5.396;2023-03-16T08:18:50;101384.53;;;5.67;100.00
74125;BME280;62475;52.192;5.396;2023-03-16T08:21:17;101373.78;;;5.77;100.00
74125;BME280;62475;52.192;5.396;2023-03-16T08:23:42;101373.16;;;5.87;100.00
74125;BME280;62475;52.192;5.396;2023-03-16T08:26:15;101361.72;;;5.90;100.00
74125;BME280;62475;52.192;5.396;2023-03-16T08:28:46;101366.50;;;6.00;100.00
74125;BME280;62475;52.192;5.396;2023-03-16T08:31:14;101372.00;;;6.05;100.00
74125;BME280;62475;52.192;5.396;2023-03-16T08:33:41;101359.28;;;6.10;100.00
74125;BME280;62475;52.192;5.396;2023-03-16T08:36:09;101362.38;;;6.19;100.00
74125;BME280;62475;52.192;5.396;2023-03-16T08:38:36;101357.84;;;6.24;100.00
74125;BME280;62475;52.192;5.396;2023-03-16T08:41:01;101364.69;;;6.27;100.00
74125;BME280;62475;52.192;5.396;2023-03-16T08:43:26;101366.41;;;6.33;100.00
74125;BME280;62475;52.192;5.396;2023-03-16T08:45:52;101365.09;;;6.35;100.00
74125;BME280;62475;52.192;5.396;2023-03-16T08:48:19;101377.88;;;6.35;100.00
74125;BME280;62475;52.192;5.396;2023-03-16T08:50:45;101366.56;;;6.43;100.00
74125;BME280;62475;52.192;5.396;2023-03-16T08:53:12;101368.50;;;6.47;100.00
74125;BME280;62475;52.192;5.396;2023-03-16T08:55:38;101379.75;;;6.51;100.00
74125;BME280;62475;52.192;5.396;2023-03-16T08:58:05;101377.59;;;6.53;100.00
74125;BME280;62475;52.192;5.396;2023-03-16T09:00:33;101368.06;;;6.55;100.00
74125;BME280;62475;52.192;5.396;2023-03-16T09:02:59;101365.69;;;6.64;100.00
74125;BME280;62475;52.192;5.396;2023-03-16T09:05:27;101368.25;;;6.70;100.00
74125;BME280;62475;52.192;5.396;2023-03-16T09:07:52;101367.53;;;6.80;100.00
74125;BME280;62475;52.192;5.396;2023-03-16T09:10:19;101366.00;;;6.89;100.00
74125;BME280;62475;52.192;5.396;2023-03-16T09:12:51;101361.06;;;6.86;100.00
74125;BME280;62475;52.192;5.396;2023-03-16T09:15:19;101355.66;;;6.91;100.00
74125;BME280;62475;52.192;5.396;2023-03-16T09:17:45;101350.22;;;6.96;100.00
74125;BME280;62475;52.192;5.396;2023-03-16T09:20:13;101353.28;;;7.00;100.00
74125;BME280;62475;52.192;5.396;2023-03-16T09:22:40;101354.34;;;6.99;100.00
74125;BME280;62475;52.192;5.396;2023-03-16T09:25:06;101353.84;;;7.02;100.00
74125;BME280;62475;52.192;5.396;2023-03-16T09:27:33;101351.09;;;7.02;100.00
74125;BME280;62475;52.192;5.396;2023-03-16T09:30:01;101346.66;;;6.96;100.00
74125;BME280;62475;52.192;5.396;2023-03-16T09:32:27;101344.19;;;6.94;100.00
74125;BME280;62475;52.192;5.396;2023-03-16T09:34:54;101353.00;;;7.01;100.00
74125;BME280;62475;52.192;5.396;2023-03-16T09:37:20;101357.38;;;7.02;100.00
74125;BME280;62475;52.192;5.396;2023-03-16T09:39:47;101348.06;;;6.98;100.00
74125;BME280;62475;52.192;5.396;2023-03-16T09:42:17;101355.16;;;6.99;100.00
74125;BME280;62475;52.192;5.396;2023-03-16T09:45:08;101350.84;;;7.03;100.00
74125;BME280;62475;52.192;5.396;2023-03-16T09:47:39;101346.53;;;7.07;100.00
74125;BME280;62475;52.192;5.396;2023-03-16T09:50:12;101337.25;;;7.08;100.00
74125;BME280;62475;52.192;5.396;2023-03-16T09:55:31;101336.88;;;7.26;100.00
74125;BME280;62475;52.192;5.396;2023-03-16T09:57:58;101342.88;;;7.28;100.00
74125;BME280;62475;52.192;5.396;2023-03-16T10:00:35;101337.25;;;7.40;100.00
74125;BME280;62475;52.192;5.396;2023-03-16T10:03:22;101333.13;;;7.37;100.00
74125;BME280;62475;52.192;5.396;2023-03-16T10:05:58;101322.81;;;7.49;100.00
74125;BME280;62475;52.192;5.396;2023-03-16T10:08:30;101326.41;;;7.91;100.00
74125;BME280;62475;52.192;5.396;2023-03-16T10:13:46;101317.94;;;8.50;100.00
74125;BME280;62475;52.192;5.396;2023-03-16T10:16:20;101319.22;;;8.27;100.00
74125;BME280;62475;52.192;5.396;2023-03-16T10:18:50;101305.13;;;8.65;100.00
74125;BME280;62475;52.192;5.396;2023-03-16T10:21:18;101320.00;;;8.23;100.00
74125;BME280;62475;52.192;5.396;2023-03-16T10:23:47;101308.34;;;8.37;100.00
74125;BME280;62475;52.192;5.396;2023-03-16T10:26:27;101324.25;;;8.45;100.00
74125;BME280;62475;52.192;5.396;2023-03-16T10:28:56;101327.97;;;9.11;100.00
74125;BME280;62475;52.192;5.396;2023-03-16T10:31:23;101319.75;;;9.21;100.00
74125;BME280;62475;52.192;5.396;2023-03-16T10:34:04;101292.31;;;8.96;100.00
74125;BME280;62475;52.192;5.396;2023-03-16T10:36:33;101295.34;;;8.94;100.00
74125;BME280;62475;52.192;5.396;2023-03-16T10:39:05;101286.03;;;9.21;100.00
74125;BME280;62475;52.192;5.396;2023-03-16T10:41:35;101294.78;;;9.07;100.00
74125;BME280;62475;52.192;5.396;2023-03-16T10:44:08;101299.47;;;9.37;100.00
74125;BME280;62475;52.192;5.396;2023-03-16T10:46:47;101295.91;;;9.16;100.00
74125;BME280;62475;52.192;5.396;2023-03-16T10:51:53;101293.97;;;9.42;100.00
74125;BME280;62475;52.192;5.396;2023-03-16T10:54:28;101290.41;;;9.32;100.00
74125;BME280;62475;52.192;5.396;2023-03-16T10:56:57;101284.66;;;9.43;100.00
74125;BME280;62475;52.192;5.396;2023-03-16T10:59:31;101287.91;;;9.65;100.00
74125;BME280;62475;52.192;5.396;2023-03-16T11:02:00;101276.38;;;9.83;100.00
74125;BME280;62475;52.192;5.396;2023-03-16T11:04:30;101278.06;;;9.54;100.00
74125;BME280;62475;52.192;5.396;2023-03-16T11:06:56;101264.63;;;9.53;100.00
74125;BME280;62475;52.192;5.396;2023-03-16T11:09:31;101260.53;;;9.55;98.84
74125;BME280;62475;52.192;5.396;2023-03-16T11:11:58;101261.84;;;9.63;100.00
74125;BME280;62475;52.192;5.396;2023-03-16T11:14:27;101252.50;;;9.74;99.27
74125;BME280;62475;52.192;5.396;2023-03-16T11:17:11;101260.22;;;9.62;100.00
74125;BME280;62475;52.192;5.396;2023-03-16T11:19:52;101254.44;;;9.83;100.00
74125;BME280;62475;52.192;5.396;2023-03-16T11:22:23;101251.16;;;9.76;98.56
74125;BME280;62475;52.192;5.396;2023-03-16T11:32:48;101230.84;;;9.77;94.80
74125;BME280;62475;52.192;5.396;2023-03-16T11:35:17;101229.44;;;9.90;95.53
74125;BME280;62475;52.192;5.396;2023-03-16T11:37:59;101224.47;;;9.87;94.57
74125;BME280;62475;52.192;5.396;2023-03-16T11:40:37;101225.84;;;9.94;93.80
74125;BME280;62475;52.192;5.396;2023-03-16T11:45:46;101219.22;;;10.00;93.45
74125;BME280;62475;52.192;5.396;2023-03-16T11:51:07;101223.81;;;10.20;93.88
74125;BME280;62475;52.192;5.396;2023-03-16T11:59:29;101215.41;;;10.50;92.13
74125;BME280;62475;52.192;5.396;2023-03-16T12:04:55;101216.75;;;10.58;90.76
74125;BME280;62475;52.192;5.396;2023-03-16T12:08:02;101196.94;;;10.61;88.55
74125;BME280;62475;52.192;5.396;2023-03-16T12:10:43;101192.41;;;10.80;87.90
74125;BME280;62475;52.192;5.396;2023-03-16T12:15:59;101189.72;;;11.03;86.63
74125;BME280;62475;52.192;5.396;2023-03-16T12:18:46;101190.50;;;10.80;84.91
74125;BME280;62475;52.192;5.396;2023-03-16T12:21:33;101188.84;;;11.36;84.46
74125;BME280;62475;52.192;5.396;2023-03-16T12:24:05;101187.19;;;11.12;82.38
74125;BME280;62475;52.192;5.396;2023-03-16T12:26:38;101171.78;;;11.39;81.60
74125;BME280;62475;52.192;5.396;2023-03-16T12:34:52;101176.34;;;11.78;78.67
74125;BME280;62475;52.192;5.396;2023-03-16T12:40:12;101167.78;;;11.79;78.97
74125;BME280;62475;52.192;5.396;2023-03-16T12:42:51;101158.53;;;11.70;76.50
74125;BME280;62475;52.192;5.396;2023-03-16T12:45:38;101148.31;;;11.94;76.16
74125;BME280;62475;52.192;5.396;2023-03-16T12:48:27;101162.84;;;12.18;76.42
74125;BME280;62475;52.192;5.396;2023-03-16T12:50:58;101152.13;;;11.98;73.97
74125;BME280;62475;52.192;5.396;2023-03-16T12:56:42;101134.63;;;12.08;72.41
74125;BME280;62475;52.192;5.396;2023-03-16T12:59:16;101124.16;;;12.10;71.21
74125;BME280;62475;52.192;5.396;2023-03-16T13:01:43;101115.88;;;12.28;70.19
74125;BME280;62475;52.192;5.396;2023-03-16T13:04:13;101105.66;;;12.47;69.82
74125;BME280;62475;52.192;5.396;2023-03-16T13:06:51;101096.69;;;12.23;70.07
74125;BME280;62475;52.192;5.396;2023-03-16T13:09:27;101091.53;;;12.35;68.99
74125;BME280;62475;52.192;5.396;2023-03-16T13:11:56;101095.41;;;12.67;70.58
74125;BME280;62475;52.192;5.396;2023-03-16T13:14:41;101085.81;;;12.64;68.29
74125;BME280;62475;52.192;5.396;2023-03-16T13:19:44;101068.00;;;12.43;68.55
74125;BME280;62475;52.192;5.396;2023-03-16T13:22:50;101072.91;;;12.78;68.53
74125;BME280;62475;52.192;5.396;2023-03-16T13:25:38;101061.97;;;12.73;67.97
74125;BME280;62475;52.192;5.396;2023-03-16T13:28:10;101070.47;;;12.77;66.79
74125;BME280;62475;52.192;5.396;2023-03-16T13:30:43;101057.78;;;12.89;64.92
74125;BME280;62475;52.192;5.396;2023-03-16T13:33:20;101066.78;;;13.13;65.92
74125;BME280;62475;52.192;5.396;2023-03-16T13:35:48;101089.91;;;12.99;63.37
74125;BME280;62475;52.192;5.396;2023-03-16T13:38:16;101054.75;;;12.91;63.61
74125;BME280;62475;52.192;5.396;2023-03-16T13:40:50;101059.09;;;13.10;63.97
74125;BME280;62475;52.192;5.396;2023-03-16T13:43:18;101040.25;;;12.99;62.32
74125;BME280;62475;52.192;5.396;2023-03-16T13:45:44;101047.63;;;13.03;62.58
74125;BME280;62475;52.192;5.396;2023-03-16T13:48:11;101045.63;;;13.36;63.20
74125;BME280;62475;52.192;5.396;2023-03-16T13:50:37;101053.78;;;13.41;61.38
74125;BME280;62475;52.192;5.396;2023-03-16T13:53:14;101036.59;;;13.03;62.02